Time;durP1;ratioP1;P1;durP2;ratioP2;P2;SDS_P1;SDS_P2;PMS_P1;PMS_P2;Temp;Humidity;BMP_temperature;BMP_pressure;BME280_temperature;BME280_humidity;BME280_pressure;Samples;Min_cycle;Max_cycle;Signal;HPM_P1;HPM_P2
2022/09/04 00:00:18;;;;;;;34.20;30.90;;;22.20;77.30;;;;;;5052894;28;20429;-60
2022/09/04 00:02:58;;;;;;;32.90;29.63;;;22.20;77.10;;;;;;5070530;28;20109;-60
2022/09/04 00:05:34;;;;;;;32.67;29.20;;;22.20;77.00;;;;;;5071796;28;20099;-60
2022/09/04 00:08:25;;;;;;;36.03;31.88;;;22.20;76.70;;;;;;5074581;28;20067;-59
2022/09/04 00:11:10;;;;;;;34.08;30.67;;;22.30;77.00;;;;;;5074071;28;20081;-60
2022/09/04 00:13:57;;;;;;;38.33;33.92;;;22.20;76.90;;;;;;5056204;28;20047;-60
2022/09/04 00:16:25;;;;;;;37.20;33.50;;;22.20;77.50;;;;;;5074227;28;20517;-60
2022/09/04 00:19:15;;;;;;;36.60;32.88;;;22.10;77.10;;;;;;5074239;28;20024;-60
2022/09/04 00:22:01;;;;;;;35.13;31.52;;;22.10;77.80;;;;;;5074128;28;20025;-59
2022/09/04 00:25:01;;;;;;;37.15;33.20;;;21.90;77.80;;;;;;5074259;28;20056;-59
2022/09/04 00:27:31;;;;;;;37.60;33.67;;;21.80;77.70;;;;;;5063187;28;20075;-59
2022/09/04 00:30:01;;;;;;;36.25;29.58;;;21.80;77.90;;;;;;5074142;28;20033;-59
2022/09/04 00:32:51;;;;;;;35.58;31.92;;;21.80;78.10;;;;;;5073912;28;20044;-58
2022/09/04 00:35:55;;;;;;;37.10;33.42;;;21.70;78.60;;;;;;5074001;28;20031;-60
2022/09/04 00:38:30;;;;;;;37.22;33.72;;;21.70;78.70;;;;;;5069573;28;20420;-60
2022/09/04 00:41:10;;;;;;;37.13;33.45;;;21.60;78.50;;;;;;5073665;28;20017;-60
2022/09/04 00:43:59;;;;;;;34.80;31.50;;;21.60;78.80;;;;;;5073936;28;20036;-59
2022/09/04 00:46:50;;;;;;;39.25;35.33;;;21.50;78.90;;;;;;5073674;28;20107;-59
2022/09/04 00:49:40;;;;;;;41.78;37.65;;;21.50;79.00;;;;;;5073900;28;20395;-59
2022/09/04 00:52:12;;;;;;;43.80;39.13;;;21.60;79.00;;;;;;5073605;28;20387;-59
2022/09/04 00:55:06;;;;;;;44.38;37.92;;;21.60;78.90;;;;;;5073660;28;20037;-60
2022/09/04 00:57:57;;;;;;;42.50;38.25;;;21.40;79.20;;;;;;5073181;28;20380;-59
2022/09/04 01:00:26;;;;;;;46.38;39.72;;;21.40;79.90;;;;;;5055867;28;20021;-59
2022/09/04 01:03:06;;;;;;;41.95;37.60;;;21.30;79.70;;;;;;5073316;28;20044;-59
2022/09/04 01:05:44;;;;;;;43.83;36.55;;;21.30;79.90;;;;;;5073547;28;20483;-59
2022/09/04 01:08:09;;;;;;;;;;;21.30;80.80;;;;;;5073929;28;20058;-60
2022/09/04 01:10:44;;;;;;;47.88;40.25;;;21.30;80.20;;;;;;5073134;28;20106;-60
2022/09/04 01:13:41;;;;;;;44.70;40.30;;;21.20;80.60;;;;;;5073047;28;20025;-60
2022/09/04 01:16:14;;;;;;;43.80;39.47;;;21.10;82.40;;;;;;5072476;28;20119;-58
2022/09/04 01:19:18;;;;;;;43.72;39.22;;;21.10;81.90;;;;;;5054981;28;20033;-59
2022/09/04 01:21:53;;;;;;;44.85;40.25;;;21.10;82.20;;;;;;5069112;28;20548;-58
2022/09/04 01:24:40;;;;;;;45.75;40.92;;;21.10;82.10;;;;;;5073202;28;20028;-58
2022/09/04 01:27:21;;;;;;;43.72;39.30;;;21.10;82.10;;;;;;5072674;28;20040;-59
2022/09/04 01:30:05;;;;;;;43.25;38.72;;;21.00;81.90;;;;;;5072883;28;20075;-58
2022/09/04 01:33:09;;;;;;;44.45;39.65;;;21.00;82.50;;;;;;5072736;28;20024;-59
2022/09/04 01:36:02;;;;;;;43.70;38.10;;;21.00;82.70;;;;;;5065797;28;20174;-58
2022/09/04 01:38:37;;;;;;;44.55;40.13;;;20.90;82.50;;;;;;5059542;28;20450;-59
2022/09/04 01:41:16;;;;;;;43.22;38.53;;;20.90;82.40;;;;;;5054070;28;20033;-58
2022/09/04 01:43:42;;;;;;;44.20;39.58;;;20.80;82.60;;;;;;5070089;28;20020;-59
2022/09/04 01:46:23;;;;;;;48.33;40.10;;;20.80;82.50;;;;;;5072728;28;20024;-60
2022/09/04 01:48:52;;;;;;;43.63;38.80;;;20.80;82.90;;;;;;5072624;28;20032;-59
2022/09/04 01:51:24;;;;;;;45.30;40.42;;;20.80;82.80;;;;;;5072024;28;20525;-59
2022/09/04 01:54:17;;;;;;;43.83;39.13;;;20.80;82.80;;;;;;5072737;28;20497;-60
2022/09/04 01:56:57;;;;;;;40.88;36.67;;;20.80;82.80;;;;;;5072109;28;20044;-60
2022/09/04 01:59:41;;;;;;;40.95;36.75;;;20.80;82.70;;;;;;5054309;28;20074;-60
2022/09/04 02:02:21;;;;;;;40.55;36.17;;;20.90;82.40;;;;;;5072221;28;20028;-57
2022/09/04 02:05:17;;;;;;;42.97;35.95;;;21.00;82.10;;;;;;5054321;28;20025;-58
2022/09/04 02:07:51;;;;;;;40.50;36.10;;;21.00;81.80;;;;;;5071809;28;20090;-59
2022/09/04 02:10:38;;;;;;;40.95;36.60;;;21.10;81.40;;;;;;5072022;28;20463;-59
2022/09/04 02:13:25;;;;;;;43.67;36.30;;;21.10;81.40;;;;;;5072222;28;20029;-59
2022/09/04 02:16:35;;;;;;;45.33;39.00;;;21.00;81.30;;;;;;5072175;28;20064;-59
2022/09/04 02:19:47;;;;;;;44.47;37.25;;;20.90;81.30;;;;;;5066344;28;20031;-59
2022/09/04 02:22:30;;;;;;;46.38;41.42;;;20.90;81.50;;;;;;5065826;28;20345;-57
2022/09/04 02:25:08;;;;;;;42.83;38.28;;;20.90;81.80;;;;;;5070997;28;20032;-58
2022/09/04 02:27:33;;;;;;;;;;;20.80;81.60;;;;;;5071766;28;20406;-60
2022/09/04 02:30:15;;;;;;;41.67;37.17;;;20.70;82.20;;;;;;5071576;28;19908;-59
2022/09/04 02:32:49;;;;;;;40.65;36.47;;;20.80;81.90;;;;;;5071527;28;20028;-60
2022/09/04 02:35:38;;;;;;;45.70;39.72;;;20.80;81.80;;;;;;5071610;28;20024;-59
2022/09/04 02:38:13;;;;;;;42.95;38.60;;;20.80;82.50;;;;;;5065011;28;20032;-59
2022/09/04 02:43:38;;;;;;;41.45;37.10;;;20.80;81.80;;;;;;5049397;28;20068;-50
2022/09/04 02:46:15;;;;;;;44.08;39.33;;;20.80;81.70;;;;;;5050372;28;20128;-49
2022/09/04 02:48:50;;;;;;;39.33;35.22;;;20.80;81.60;;;;;;5051627;28;20390;-49
2022/09/04 02:51:44;;;;;;;42.28;37.80;;;20.80;82.10;;;;;;5046167;28;20048;-49
2022/09/04 02:54:16;;;;;;;46.78;38.20;;;20.70;82.60;;;;;;5038672;28;20044;-50
2022/09/04 02:57:08;;;;;;;45.42;40.60;;;20.80;81.90;;;;;;5034890;28;20037;-49
2022/09/04 03:00:18;;;;;;;46.25;38.80;;;20.70;81.80;;;;;;5039720;28;20060;-49
2022/09/04 03:03:13;;;;;;;42.90;38.58;;;20.70;82.30;;;;;;5035084;28;20029;-49
2022/09/04 03:05:48;;;;;;;46.92;41.55;;;20.70;82.20;;;;;;5044147;28;20380;-50
2022/09/04 03:08:22;;;;;;;47.53;40.60;;;20.70;82.10;;;;;;5027436;28;20041;-49
2022/09/04 03:11:13;;;;;;;54.03;38.65;;;20.70;81.80;;;;;;5047001;28;20017;-50
2022/09/04 03:13:50;;;;;;;43.42;38.45;;;20.70;81.60;;;;;;5041344;28;20384;-50
2022/09/04 03:16:37;;;;;;;41.33;36.70;;;;;;;;;;5033771;28;20058;-51
2022/09/04 03:19:24;;;;;;;43.28;38.63;;;20.70;81.70;;;;;;5050549;28;20570;-48
2022/09/04 03:22:05;;;;;;;43.70;37.90;;;20.60;81.70;;;;;;5050620;28;20036;-49
2022/09/04 03:24:41;;;;;;;55.97;42.15;;;20.60;81.70;;;;;;5033571;28;20566;-50
2022/09/04 03:27:12;;;;;;;44.05;37.60;;;20.60;81.70;;;;;;5031477;28;20041;-50
2022/09/04 03:30:11;;;;;;;52.83;42.67;;;20.50;81.80;;;;;;5031521;28;20029;-50
2022/09/04 03:32:48;;;;;;;47.85;42.53;;;20.60;82.30;;;;;;5018980;28;20037;-48
2022/09/04 03:35:28;;;;;;;52.30;41.75;;;20.50;82.00;;;;;;5050525;28;20021;-50
2022/09/04 03:38:07;;;;;;;45.42;39.90;;;20.60;82.00;;;;;;5050453;28;20077;-48
2022/09/04 03:40:41;;;;;;;45.63;39.55;;;20.60;82.20;;;;;;5053414;28;20474;-50
2022/09/04 03:43:19;;;;;;;46.97;42.13;;;20.60;82.10;;;;;;5054872;28;20111;-49
2022/09/04 03:45:44;;;;;;;44.17;38.90;;;20.60;82.00;;;;;;5055257;28;20025;-50
2022/09/04 03:48:13;;;;;;;48.03;42.17;;;20.50;82.00;;;;;;5055241;28;20035;-50
2022/09/04 03:50:52;;;;;;;45.08;40.35;;;;;;;;;;5054243;28;20028;-50
2022/09/04 03:53:30;;;;;;;43.42;39.03;;;;;;;;;;5040917;28;20108;-50
2022/09/04 03:56:11;;;;;;;43.90;39.30;;;;;;;;;;5053948;28;20035;-50
2022/09/04 03:58:56;;;;;;;44.83;39.80;;;;;;;;;;5054952;28;20029;-49
2022/09/04 04:01:26;;;;;;;44.30;39.47;;;;;;;;;;5052209;28;20037;-51
2022/09/04 04:04:12;;;;;;;47.88;41.58;;;;;;;;;;5054789;28;20032;-50
2022/09/04 04:06:53;;;;;;;48.92;43.72;;;;;;;;;;5054679;28;20025;-50
2022/09/04 04:09:29;;;;;;;51.08;42.53;;;;;;;;;;5054809;28;20075;-50
2022/09/04 04:11:55;;;;;;;46.92;41.90;;;;;;;;;;5036296;28;20025;-50
2022/09/04 04:14:21;;;;;;;44.33;39.70;;;;;;;;;;5052494;28;20518;-52
2022/09/04 04:16:59;;;;;;;46.80;41.90;;;;;;;;;;5034800;28;20029;-52
2022/09/04 04:19:25;;;;;;;46.47;41.47;;;;;;;;;;5034666;28;20022;-50
2022/09/04 04:21:57;;;;;;;44.05;39.00;;;;;;;;;;5052488;28;20024;-51
2022/09/04 04:24:27;;;;;;;46.10;40.13;;;;;;;;;;5052611;28;20032;-53
2022/09/04 04:27:03;;;;;;;44.58;39.90;;;;;;;;;;5034455;28;20114;-50
2022/09/04 04:29:44;;;;;;;46.80;41.80;;;;;;;;;;5034799;28;20091;-50
2022/09/04 04:32:10;;;;;;;51.13;41.60;;;;;;;;;;5034215;28;20126;-50
2022/09/04 04:34:42;;;;;;;50.63;41.03;;;;;;;;;;5036367;28;20036;-51
2022/09/04 04:37:12;;;;;;;43.63;39.20;;;;;;;;;;5054151;28;20029;-49
2022/09/04 04:39:49;;;;;;;46.83;40.13;;;;;;;;;;5054198;28;20112;-50
2022/09/04 04:42:34;;;;;;;47.92;38.30;;;;;;;;;;5053860;28;20032;-50
2022/09/04 04:48:13;;;;;;;45.67;40.92;;;;;;;;;;5034378;28;20091;-51
2022/09/04 04:50:58;;;;;;;43.60;38.88;;;;;;;;;;5033320;28;20029;-51
2022/09/04 04:53:32;;;;;;;46.60;41.65;;;;;;;;;;5033893;28;20091;-49
2022/09/04 04:56:04;;;;;;;48.78;42.75;;;;;;;;;;5046828;28;20035;-50
2022/09/04 04:58:48;;;;;;;51.17;45.67;;;;;;;;;;5053889;28;20029;-48
2022/09/04 05:01:17;;;;;;;51.03;45.25;;;;;;;;;;5054143;28;20028;-51
2022/09/04 05:04:04;;;;;;;50.72;45.40;;;;;;;;;;5038654;28;20029;-51
2022/09/04 05:06:37;;;;;;;50.47;42.72;;;;;;;;;;5033389;28;20052;-53
2022/09/04 05:09:13;;;;;;;48.13;43.10;;;;;;;;;;5053773;28;20086;-50
2022/09/04 05:11:58;;;;;;;48.28;40.53;;;;;;;;;;5034221;28;20037;-50
2022/09/04 05:14:24;;;;;;;46.55;41.60;;;;;;;;;;5033671;28;20040;-50
2022/09/04 05:16:54;;;;;;;50.53;41.93;;;;;;;;;;5051854;28;20025;-51
2022/09/04 05:19:24;;;;;;;46.10;41.20;;;;;;;;;;5053568;28;20251;-50
2022/09/04 05:21:59;;;;;;;45.53;40.65;;;;;;;;;;5053344;28;20472;-50
2022/09/04 05:24:25;;;;;;;47.55;42.42;;;;;;;;;;5042034;28;20026;-51
2022/09/04 05:26:59;;;;;;;49.42;44.13;;;;;;;;;;5048454;28;20507;-50
2022/09/04 05:29:31;;;;;;;51.70;44.92;;;;;;;;;;5053441;28;20391;-51
2022/09/04 05:32:09;;;;;;;57.38;48.08;;;20.40;82.30;;;;;;5035570;28;20041;-49
2022/09/04 05:34:52;;;;;;;46.08;40.65;;;20.40;83.30;;;;;;5034101;28;20026;-51
2022/09/04 05:37:46;;;;;;;45.75;41.05;;;20.40;83.50;;;;;;5051557;28;20037;-50
2022/09/04 05:40:37;;;;;;;48.45;43.15;;;20.40;84.20;;;;;;5052879;28;20438;-51
2022/09/04 05:43:15;;;;;;;49.65;40.65;;;20.30;84.70;;;;;;5051859;28;20087;-49
2022/09/04 05:45:52;;;;;;;50.88;44.03;;;20.20;85.10;;;;;;5043108;28;20029;-49
2022/09/04 05:48:18;;;;;;;48.28;41.88;;;;;;;;;;5015883;28;20038;-49
2022/09/04 05:50:56;;;;;;;47.47;42.25;;;;;;;;;;5052564;28;20215;-50
2022/09/04 05:53:44;;;;;;;58.30;42.10;;;20.30;84.80;;;;;;5052878;28;20061;-50
2022/09/04 05:56:28;;;;;;;46.13;41.13;;;;;;;;;;5039388;28;20083;-49
2022/09/04 05:59:03;;;;;;;55.22;45.22;;;;;;;;;;5032714;28;20029;-50
2022/09/04 06:01:30;;;;;;;48.85;43.55;;;;;;;;;;5048975;28;20108;-49
2022/09/04 06:04:04;;;;;;;50.03;44.80;;;;;;;;;;5036638;28;20025;-49
2022/09/04 06:06:42;;;;;;;47.65;41.08;;;;;;;;;;5015988;28;20496;-50
2022/09/04 06:09:37;;;;;;;52.35;44.33;;;;;;;;;;5033775;28;20030;-50
2022/09/04 06:12:03;;;;;;;49.53;43.25;;;;;;;;;;5026646;28;20038;-50
2022/09/04 06:14:29;;;;;;;45.55;40.67;;;;;;;;;;5040728;28;20040;-49
2022/09/04 06:16:58;;;;;;;45.78;40.97;;;;;;;;;;5052308;28;20387;-50
2022/09/04 06:19:24;;;;;;;47.92;42.72;;;;;;;;;;5032758;28;20026;-49
2022/09/04 06:22:02;;;;;;;50.45;44.97;;;;;;;;;;5049510;28;20112;-49
2022/09/04 06:24:28;;;;;;;49.20;43.88;;;;;;;;;;5059498;28;20029;-53
2022/09/04 06:27:00;;;;;;;48.45;43.45;;;;;;;;;;5052042;28;20029;-50
2022/09/04 06:29:45;;;;;;;44.92;40.15;;;;;;;;;;5050208;28;20024;-53
2022/09/04 06:32:26;;;;;;;44.10;39.53;;;;;;;;;;5051841;28;20092;-53
2022/09/04 06:34:52;;;;;;;44.22;39.65;;;;;;;;;;5051924;28;20159;-50
2022/09/04 06:37:38;;;;;;;44.65;40.08;;;;;;;;;;5050785;28;20083;-50
2022/09/04 06:40:10;;;;;;;43.20;38.67;;;;;;;;;;5014440;28;20026;-49
2022/09/04 06:42:50;;;;;;;40.83;36.67;;;;;;;;;;5032831;28;20032;-51
2022/09/04 06:45:35;;;;;;;42.53;38.13;;;;;;;;;;5036229;28;20508;-50
2022/09/04 06:48:01;;;;;;;40.80;36.25;;;;;;;;;;5050480;28;20025;-50
2022/09/04 06:50:35;;;;;;;41.42;36.78;;;;;;;;;;5034044;28;20029;-49
2022/09/04 06:53:20;;;;;;;41.17;36.88;;;;;;;;;;5032140;28;20033;-50
2022/09/04 06:55:46;;;;;;;41.85;35.38;;;;;;;;;;5033846;28;20028;-50
2022/09/04 06:58:15;;;;;;;40.63;36.33;;;;;;;;;;5031486;28;20033;-50
2022/09/04 07:01:01;;;;;;;40.88;35.58;;;;;;;;;;5047809;28;20072;-50
2022/09/04 07:03:38;;;;;;;54.30;41.30;;;;;;;;;;5042908;28;20025;-48
2022/09/04 07:06:04;;;;;;;34.30;30.80;;;;;;;;;;5015074;28;20112;-48
2022/09/04 07:08:30;;;;;;;38.25;33.00;;;;;;;;;;5032713;28;20110;-49
2022/09/04 07:11:14;;;;;;;34.77;31.10;;;;;;;;;;5031191;28;20057;-49
2022/09/04 07:13:53;;;;;;;35.15;29.88;;;;;;;;;;5031419;28;20033;-48
2022/09/04 07:16:24;;;;;;;33.42;29.92;;;;;;;;;;5067362;28;20485;-48
2022/09/04 07:18:59;;;;;;;33.80;30.15;;;;;;;;;;5040334;28;20037;-48
2022/09/04 07:21:44;;;;;;;35.97;29.52;;;;;;;;;;5032259;28;20469;-48
2022/09/04 07:24:19;;;;;;;28.17;25.45;;;;;;;;;;5033181;28;20061;-49
2022/09/04 07:27:08;;;;;;;33.05;29.52;;;;;;;;;;5031551;28;20109;-50
2022/09/04 07:29:50;;;;;;;34.33;29.83;;;;;;;;;;5031391;28;20031;-49
2022/09/04 07:32:25;;;;;;;28.92;25.90;;;;;;;;;;5050153;28;20088;-50
2022/09/04 07:35:10;;;;;;;25.42;22.55;;;;;;;;;;5054668;28;20100;-50
2022/09/04 07:37:42;;;;;;;26.13;23.30;;;;;;;;;;5044551;28;20392;-50
2022/09/04 07:40:27;;;;;;;29.13;23.52;;;;;;;;;;5033297;28;20446;-49
2022/09/04 07:42:57;;;;;;;20.75;17.05;;;;;;;;;;5051054;28;20037;-49
2022/09/04 07:45:23;;;;;;;20.95;18.80;;;;;;;;;;5039311;28;20408;-49
2022/09/04 07:47:55;;;;;;;20.70;18.53;;;;;;;;;;5031295;28;20033;-50
2022/09/04 07:50:30;;;;;;;21.70;19.23;;;23.50;77.60;;;;;;5045196;28;20039;-50
2022/09/04 07:53:02;;;;;;;20.42;18.15;;;23.60;77.20;;;;;;5042915;28;20455;-49
2022/09/04 07:55:46;;;;;;;15.05;13.45;;;23.60;77.10;;;;;;5045315;28;20028;-49
2022/09/04 07:58:38;;;;;;;18.40;14.38;;;23.70;76.10;;;;;;5050750;28;20220;-48
2022/09/04 08:01:07;;;;;;;17.70;15.05;;;23.80;76.60;;;;;;5049415;28;20087;-50
2022/09/04 08:04:08;;;;;;;18.77;16.88;;;23.80;76.30;;;;;;5051036;28;20031;-49
2022/09/04 08:06:37;;;;;;;18.52;16.48;;;;;;;;;;5051511;28;20159;-48
2022/09/04 08:09:16;;;;;;;18.80;15.30;;;;;;;;;;5051028;28;20082;-48
2022/09/04 08:11:51;;;;;;;19.00;17.10;;;;;;;;;;5050897;28;20040;-49
2022/09/04 08:14:17;;;;;;;23.55;17.05;;;;;;;;;;5049715;28;20463;-49
2022/09/04 08:16:55;;;;;;;18.30;16.30;;;;;;;;;;5051329;28;20025;-50
2022/09/04 08:19:27;;;;;;;18.08;16.23;;;;;;;;;;5049706;28;20029;-51
2022/09/04 08:21:54;;;;;;;17.67;15.82;;;;;;;;;;5050769;28;20025;-50
2022/09/04 08:24:20;;;;;;;;;;;;;;;;;;5051403;28;20029;-48
2022/09/04 08:26:52;;;;;;;18.70;14.52;;;;;;;;;;5052457;28;20394;-50
2022/09/04 08:29:36;;;;;;;18.10;16.15;;;;;;;;;;5054547;28;20032;-50
2022/09/04 08:32:21;;;;;;;17.70;15.88;;;;;;;;;;5054179;28;20028;-50
2022/09/04 08:35:04;;;;;;;17.15;15.43;;;;;;;;;;5054425;28;20018;-52
2022/09/04 08:37:33;;;;;;;17.20;15.60;;;;;;;;;;5054422;28;20402;-49
2022/09/04 08:40:02;;;;;;;17.75;15.95;;;;;;;;;;5054299;28;20020;-50
2022/09/04 08:42:34;;;;;;;17.83;15.93;;;;;;;;;;5071939;22;20056;-50
2022/09/04 08:45:06;;;;;;;19.08;17.02;;;;;;;;;;5073903;28;20025;-49
2022/09/04 08:47:35;;;;;;;19.48;17.50;;;;;;;;;;5056175;28;20036;-49
2022/09/04 08:50:17;;;;;;;19.35;17.55;;;;;;;;;;5074191;28;20021;-50
2022/09/04 08:52:43;;;;;;;19.13;17.13;;;;;;;;;;5073910;28;20032;-52
2022/09/04 08:55:15;;;;;;;19.40;16.23;;;;;;;;;;5073841;28;20024;-52
2022/09/04 08:57:51;;;;;;;18.30;15.90;;;;;;;;;;5073897;28;20545;-50
2022/09/04 09:00:19;;;;;;;18.02;16.08;;;;;;;;;;5073919;28;20115;-49
2022/09/04 09:02:51;;;;;;;17.75;16.00;;;;;;;;;;5073698;28;20021;-50
2022/09/04 09:05:24;;;;;;;23.02;16.92;;;;;;;;;;5073806;28;20436;-50
2022/09/04 09:08:05;;;;;;;18.08;16.38;;;;;;;;;;5073828;28;20024;-50
2022/09/04 09:10:34;;;;;;;16.98;15.27;;;;;;;;;;5055813;28;20051;-50
2022/09/04 09:13:19;;;;;;;18.80;16.75;;;;;;;;;;5055673;28;20028;-49
2022/09/04 09:16:00;;;;;;;19.05;17.13;;;;;;;;;;5073578;28;20029;-53
2022/09/04 09:18:37;;;;;;;19.55;17.55;;;;;;;;;;5073554;28;20402;-50
2022/09/04 09:21:22;;;;;;;21.35;16.40;;;;;;;;;;5073374;28;20389;-50
2022/09/04 09:24:07;;;;;;;18.83;16.88;;;;;;;;;;5055527;28;20486;-50
2022/09/04 09:26:37;;;;;;;18.45;16.55;;;;;;;;;;5073378;28;20386;-50
2022/09/04 09:29:26;;;;;;;18.33;16.65;;;;;;;;;;5073367;28;20021;-53
2022/09/04 09:32:12;;;;;;;17.58;15.73;;;;;;;;;;5073145;28;20099;-50
2022/09/04 09:34:57;;;;;;;18.08;15.95;;;;;;;;;;5073211;28;20021;-50
2022/09/04 09:37:32;;;;;;;19.48;14.73;;;;;;;;;;5073120;28;20115;-50
2022/09/04 09:40:17;;;;;;;17.85;15.98;;;;;;;;;;5055255;28;20526;-50
2022/09/04 09:43:01;;;;;;;23.20;15.30;;;;;;;;;;5072666;28;20029;-50
2022/09/04 09:45:51;;;;;;;17.52;14.73;;;;;;;;;;5072974;28;20024;-52
2022/09/04 09:48:23;;;;;;;15.30;13.85;;;;;;;;;;5054899;28;20090;-50
2022/09/04 09:51:08;;;;;;;16.20;14.32;;;;;;;;;;5072793;28;20035;-50
2022/09/04 09:53:49;;;;;;;17.58;15.32;;;;;;;;;;5072818;28;20109;-53
2022/09/04 09:56:34;;;;;;;16.27;13.68;;;;;;;;;;5072846;28;20107;-50
2022/09/04 09:59:05;;;;;;;14.00;12.57;;;;;;;;;;5072634;28;20032;-50
2022/09/04 10:01:45;;;;;;;13.32;11.93;;;;;;;;;;5072535;28;20533;-50
2022/09/04 10:04:30;;;;;;;19.08;13.20;;;;;;;;;;5072690;28;20021;-50
2022/09/04 10:07:09;;;;;;;14.88;13.18;;;;;;;;;;5072736;28;20062;-52
2022/09/04 10:09:53;;;;;;;13.18;11.55;;;;;;;;;;5072639;28;20068;-50
2022/09/04 10:12:19;;;;;;;12.02;10.90;;;;;;;;;;5072097;28;20020;-50
2022/09/04 10:14:45;;;;;;;13.05;10.43;;;;;;;;;;5072508;28;20048;-50
2022/09/04 10:17:41;;;;;;;16.45;10.30;;;;;;;;;;5072364;28;20067;-50
2022/09/04 10:20:25;;;;;;;11.27;10.18;;;;;;;;;;5000835;28;20034;-50
2022/09/04 10:23:10;;;;;;;11.45;10.35;;;;;;;;;;5072240;28;20035;-50
2022/09/04 10:25:45;;;;;;;15.45;9.18;;;;;;;;;;5072284;28;20048;-50
2022/09/04 10:28:29;;;;;;;12.93;10.00;;;;;;;;;;5054170;28;20437;-50
2022/09/04 10:31:14;;;;;;;9.57;8.15;;;;;;;;;;5071878;28;20032;-50
2022/09/04 10:33:49;;;;;;;9.55;7.72;;;;;;;;;;5072160;28;20024;-50
2022/09/04 10:36:24;;;;;;;8.43;7.50;;;;;;;;;;5071975;28;20028;-50
2022/09/04 10:41:55;;;;;;;7.75;6.90;;;;;;;;;;4990034;28;20519;-53
2022/09/04 10:44:43;;;;;;;10.55;9.45;;;;;;;;;;4989349;28;20026;-53
2022/09/04 10:47:09;;;;;;;9.40;8.45;;;;;;;;;;5021022;28;20491;-50
2022/09/04 10:49:44;;;;;;;8.60;7.15;;;;;;;;;;5051462;28;20020;-51
2022/09/04 10:52:36;;;;;;;8.07;7.22;;;;;;;;;;5070874;28;20452;-50
2022/09/04 10:55:06;;;;;;;8.35;6.10;;;;;;;;;;5067556;28;20040;-49
2022/09/04 10:57:44;;;;;;;13.05;7.53;;;;;;;;;;5071688;28;20063;-50
2022/09/04 11:00:12;;;;;;;8.63;7.78;;;;;;;;;;5071794;28;20486;-51
2022/09/04 11:02:41;;;;;;;8.25;7.20;;;;;;;;;;5071288;28;20021;-50
2022/09/04 11:05:26;;;;;;;10.70;7.88;;;;;;;;;;5067801;28;20537;-50
2022/09/04 11:08:05;;;;;;;11.75;7.65;;;;;;;;;;5071527;28;20040;-50
2022/09/04 11:10:38;;;;;;;8.55;7.75;;;;;;;;;;5070580;28;20542;-50
2022/09/04 11:13:22;;;;;;;11.73;7.03;;;;;;;;;;5070661;28;20036;-49
2022/09/04 11:15:51;;;;;;;8.95;7.72;;;;;;;;;;5070495;28;20040;-50
2022/09/04 11:18:21;;;;;;;10.77;7.20;;;;;;;;;;5070889;28;20071;-52
2022/09/04 11:21:06;;;;;;;9.50;6.65;;;;;;;;;;5069926;28;20029;-50
2022/09/04 11:23:58;;;;;;;7.50;6.82;;;;;;;;;;5069948;28;20021;-50
2022/09/04 11:26:31;;;;;;;7.30;6.20;;;;;;;;;;5032956;28;20033;-50
2022/09/04 11:29:00;;;;;;;8.68;5.72;;;;;;;;;;5068246;28;20063;-52
2022/09/04 11:31:34;;;;;;;6.22;5.63;;;;;;;;;;5067776;28;20041;-50
2022/09/04 11:34:21;;;;;;;7.15;6.50;;;;;;;;;;5058640;28;20051;-50
2022/09/04 11:36:50;;;;;;;7.63;6.93;;;;;;;;;;5020845;28;20109;-50
2022/09/04 11:39:19;;;;;;;9.57;8.20;;;;;;;;;;5071002;28;20024;-53
2022/09/04 11:41:51;;;;;;;9.70;7.50;;;;;;;;;;5070994;28;20448;-50
2022/09/04 11:44:21;;;;;;;12.75;7.40;;;;;;;;;;5071277;28;20029;-50
2022/09/04 11:47:05;;;;;;;9.02;6.70;;;;;;;;;;5070697;28;20395;-50
2022/09/04 11:49:39;;;;;;;8.27;7.35;;;;;;;;;;5069368;28;20027;-50
2022/09/04 11:52:25;;;;;;;7.20;6.22;;;;;;;;;;5070221;28;20021;-50
2022/09/04 11:55:06;;;;;;;9.07;6.95;;;;;;;;;;5071063;28;20031;-50
2022/09/04 11:57:38;;;;;;;8.65;6.30;;;;;;;;;;5070983;28;20029;-53
2022/09/04 12:00:06;;;;;;;10.75;6.70;;;;;;;;;;5071035;28;20044;-53
2022/09/04 12:02:35;;;;;;;7.30;6.35;;;;;;;;;;5072724;28;20103;-51
2022/09/04 12:05:23;;;;;;;9.23;6.50;;;;;;;;;;5074397;28;20035;-51
2022/09/04 12:07:49;;;;;;;;;;;;;;;;;;5075233;28;20495;-50
2022/09/04 12:10:18;;;;;;;9.43;6.85;;;;;;;;;;5056800;28;19958;-50
2022/09/04 12:12:57;;;;;;;7.93;5.80;;;;;;;;;;5074474;28;20024;-51
2022/09/04 12:15:43;;;;;;;5.72;4.95;;;;;;;;;;5074706;28;20486;-50
2022/09/04 12:18:32;;;;;;;8.52;6.50;;;;;;;;;;5056423;28;20068;-50
2022/09/04 12:21:24;;;;;;;8.93;6.57;;;;;;;;;;5074333;28;20012;-50
2022/09/04 12:23:58;;;;;;;6.20;5.35;;;;;;;;;;5074542;28;20024;-50
2022/09/04 12:26:42;;;;;;;7.60;5.22;;;;;;;;;;5074251;28;20478;-50
2022/09/04 12:29:16;;;;;;;6.65;5.55;;;;;;;;;;5074543;28;20424;-50
2022/09/04 12:31:51;;;;;;;6.03;5.38;;;;;;;;;;5073804;28;20044;-50
2022/09/04 12:34:27;;;;;;;9.45;5.45;;;;;;;;;;5056526;28;20051;-51
2022/09/04 12:37:10;;;;;;;6.00;5.25;;;;;;;;;;5074082;28;20028;-50
2022/09/04 12:39:36;;;;;;;7.38;4.65;;;;;;;;;;5074084;28;20482;-50
2022/09/04 12:42:08;;;;;;;6.47;5.78;;;;;;;;;;5073619;28;20085;-50
2022/09/04 12:44:43;;;;;;;6.45;4.95;;;;;;;;;;5074392;28;20059;-50
2022/09/04 12:47:20;;;;;;;6.28;4.97;;;;;;;;;;5073855;28;20027;-50
2022/09/04 12:50:09;;;;;;;6.05;4.65;;;;;;;;;;5056022;28;20044;-50
2022/09/04 12:52:43;;;;;;;5.95;5.28;;;;;;;;;;5073355;28;20211;-50
2022/09/04 12:55:21;;;;;;;5.85;5.25;;;;;;;;;;5073615;28;20060;-50
2022/09/04 12:57:55;;;;;;;8.13;4.53;;;;;;;;;;5073817;28;20056;-51
2022/09/04 13:00:22;;;;;;;6.50;4.93;;;;;;;;;;5073592;28;20086;-50
2022/09/04 13:03:03;;;;;;;5.68;4.95;;;;;;;;;;5074057;28;20531;-53
2022/09/04 13:05:32;;;;;;;6.07;4.53;;;;;;;;;;5073371;28;20035;-50
2022/09/04 13:08:02;;;;;;;5.90;4.50;;;;;;;;;;5073548;28;20081;-50
2022/09/04 13:10:36;;;;;;;7.45;5.50;;;;;;;;;;5073589;28;20067;-50
2022/09/04 13:13:18;;;;;;;8.13;5.45;;;;;;;;;;5073146;28;20035;-50
2022/09/04 13:15:47;;;;;;;6.38;5.03;;;;;;;;;;5055298;28;20066;-50
2022/09/04 13:18:13;;;;;;;5.63;5.03;;;;;;;;;;5072843;28;20031;-53
2022/09/04 13:21:00;;;;;;;7.75;4.47;;;;;;;;;;5073054;28;20020;-50
2022/09/04 13:23:30;;;;;;;6.35;3.90;;;;;;;;;;5028610;28;20039;-52
2022/09/04 13:26:05;;;;;;;7.00;5.32;;;;;;;;;;5072172;28;20393;-53
2022/09/04 13:28:34;;;;;;;5.13;3.75;;;;;;;;;;5053565;28;20306;-50
2022/09/04 13:31:19;;;;;;;4.90;3.65;;;;;;;;;;5053229;28;20506;-51
2022/09/04 13:34:16;;;;;;;4.43;3.80;;;23.90;76.20;;;;;;5035511;28;20036;-51
2022/09/04 13:37:09;;;;;;;6.22;4.32;;;37.20;38.50;;;;;;5053242;28;20709;-51
2022/09/04 13:39:45;;;;;;;5.00;3.40;;;38.30;36.50;;;;;;5065352;28;20040;-53
2022/09/04 13:42:22;;;;;;;3.90;2.92;;;;;;;;;;5054910;28;20240;-51
2022/09/04 13:44:51;;;;;;;6.63;3.08;;;;;;;;;;5071628;28;20025;-51
2022/09/04 13:47:43;;;;;;;4.95;3.60;;;39.30;35.10;;;;;;5043473;28;20040;-51
2022/09/04 13:50:25;;;;;;;4.05;2.50;;;;;;;;;;5070791;28;20029;-51
2022/09/04 13:53:01;;;;;;;4.65;3.67;;;;;;;;;;5053741;28;20024;-49
2022/09/04 13:55:27;;;;;;;4.13;3.00;;;;;;;;;;5069986;28;20032;-48
2022/09/04 13:58:02;;;;;;;3.30;2.85;;;;;;;;;;5072302;28;20394;-49
2022/09/04 14:00:29;;;;;;;3.80;3.50;;;;;;;;;;5051591;28;20032;-50
2022/09/04 14:03:00;;;;;;;3.05;2.85;;;;;;;;;;5072376;28;20035;-49
2022/09/04 14:05:28;;;;;;;4.95;3.55;;;;;;;;;;5072501;28;20024;-49
2022/09/04 14:08:02;;;;;;;3.30;2.75;;;;;;;;;;5071101;28;20433;-49
2022/09/04 14:10:49;;;;;;;3.20;2.92;;;;;;;;;;5071956;28;20080;-54
2022/09/04 14:13:17;;;;;;;;;;;;;;;;;;5052507;28;20051;-49
2022/09/04 14:16:05;;;;;;;4.82;2.92;;;;;;;;;;5070787;28;19908;-51
2022/09/04 14:18:52;;;;;;;13.75;12.32;;;43.50;31.50;;;;;;5071861;28;20020;-53
2022/09/04 14:21:33;;;;;;;6.78;3.00;;;42.90;30.90;;;;;;5069945;28;20021;-54
2022/09/04 14:24:08;;;;;;;4.03;2.97;;;42.90;30.00;;;;;;5069185;28;20025;-55
2022/09/04 14:26:53;;;;;;;5.85;2.88;;;42.90;29.50;;;;;;5072363;28;20071;-52
2022/09/04 14:29:35;;;;;;;9.32;3.70;;;42.10;29.70;;;;;;5054208;28;20145;-55
2022/09/04 14:32:30;;;;;;;3.70;2.97;;;41.20;29.80;;;;;;5071724;28;20032;-54
2022/09/04 14:35:20;;;;;;;4.70;2.83;;;40.70;32.60;;;;;;5071149;28;20482;-52
2022/09/04 14:38:06;;;;;;;3.95;2.72;;;42.00;30.80;;;;;;5070497;28;20497;-51
2022/09/04 14:40:37;;;;;;;4.45;2.53;;;42.30;29.70;;;;;;5071465;28;20055;-51
2022/09/04 14:43:30;;;;;;;6.53;2.70;;;40.90;30.80;;;;;;5051234;28;20509;-53
2022/09/04 14:46:17;;;;;;;6.70;2.63;;;39.80;31.70;;;;;;5051918;28;20067;-51
2022/09/04 14:48:49;;;;;;;6.78;2.70;;;40.50;31.70;;;;;;5060804;28;20028;-53
2022/09/04 14:51:24;;;;;;;5.35;3.25;;;40.60;32.30;;;;;;5070962;28;20431;-52
2022/09/04 14:53:54;;;;;;;6.25;2.40;;;41.50;31.20;;;;;;5071338;28;20029;-52